Time;durP1;ratioP1;P1;durP2;ratioP2;P2;SDS_P1;SDS_P2;PMS_P1;PMS_P2;Temp;Humidity;BMP_temperature;BMP_pressure;BME280_temperature;BME280_humidity;BME280_pressure;Samples;Min_cycle;Max_cycle;Signal;HPM_P1;HPM_P2
2023/04/17 00:00:09;;;;;;;15.38;8.40;;;;;;;9.79;29.51;149756.63;5092348;28;20062;-67
2023/04/17 00:02:38;;;;;;;22.65;10.25;;;;;;;9.87;29.55;149774.59;5087013;28;20047;-67
2023/04/17 00:05:08;;;;;;;14.10;8.48;;;;;;;9.95;30.14;149796.38;5085000;28;20249;-67
2023/04/17 00:07:40;;;;;;;14.43;9.05;;;;;;;9.95;29.80;149795.09;5103227;28;20034;-67
2023/04/17 00:10:06;;;;;;;;;;;;;;;9.96;30.01;149798.94;5104477;28;20332;-66
2023/04/17 00:12:32;;;;;;;15.90;8.73;;;;;;;9.86;29.61;149773.28;5089789;28;20075;-68
2023/04/17 00:14:58;;;;;;;18.40;8.90;;;;;;;9.92;29.61;149788.69;5090107;28;20027;-68
2023/04/17 00:17:24;;;;;;;13.65;8.63;;;;;;;9.90;29.50;149783.53;5098393;28;20071;-70
2023/04/17 00:19:50;;;;;;;15.40;9.25;;;;;;;9.83;29.91;149766.91;5084214;28;20043;-68
2023/04/17 00:22:15;;;;;;;14.20;8.95;;;;;;;9.83;29.45;149766.91;5084502;28;20036;-70
2023/04/17 00:24:41;;;;;;;17.23;9.15;;;;;;;9.98;30.92;149804.06;5084075;28;20036;-69
2023/04/17 00:27:06;;;;;;;16.75;8.68;;;;;;;9.95;29.37;149795.09;5084357;28;20070;-69
2023/04/17 00:29:33;;;;;;;17.40;9.43;;;;;;;10.00;30.50;149807.88;5089990;28;20020;-67
2023/04/17 00:31:59;;;;;;;16.50;8.88;;;;;;;9.87;29.60;149775.84;5094151;28;20035;-69
2023/04/17 00:34:24;;;;;;;18.17;9.02;;;;;;;9.92;30.16;149788.69;5084452;28;20394;-68
2023/04/17 00:36:50;;;;;;;18.08;9.60;;;;;;;9.91;29.86;149784.84;5096821;28;20040;-68
2023/04/17 00:39:16;;;;;;;17.90;8.88;;;;;;;9.92;30.98;149787.38;5096036;28;20052;-68
2023/04/17 00:41:41;;;;;;;16.30;8.90;;;;;;;9.88;30.71;149777.16;5083774;28;20035;-69
2023/04/17 00:44:07;;;;;;;19.65;10.07;;;;;;;9.83;31.40;149766.91;5084228;28;20036;-67
2023/04/17 00:46:32;;;;;;;17.88;9.85;;;;;;;9.73;29.35;149741.22;5102334;28;20250;-69
2023/04/17 00:48:59;;;;;;;15.95;9.98;;;;;;;9.83;30.23;149766.91;5089322;28;20025;-68
2023/04/17 00:51:26;;;;;;;15.48;9.48;;;;;;;9.83;29.92;149766.91;5091712;28;20028;-69
2023/04/17 00:53:53;;;;;;;16.38;9.75;;;;;;;9.84;31.00;149768.16;5099079;28;20074;-69
2023/04/17 00:56:19;;;;;;;16.85;9.77;;;;;;;9.86;30.89;149773.28;5083695;28;20060;-67
2023/04/17 00:58:45;;;;;;;17.58;9.20;;;;;;;9.66;30.05;149724.59;5098498;28;20055;-68
2023/04/17 01:01:10;;;;;;;15.35;9.60;;;;;;;9.71;29.43;149734.88;5097644;28;20078;-69
2023/04/17 01:03:36;;;;;;;14.55;8.68;;;;;;;9.69;29.74;149731.03;5094272;28;20027;-68
2023/04/17 01:06:02;;;;;;;16.90;10.50;;;;;;;9.74;29.85;149743.81;5097845;28;20285;-69
2023/04/17 01:08:39;;;;;;;21.35;9.70;;;;;;;9.56;30.50;149698.94;5083704;28;20309;-68
2023/04/17 01:11:04;;;;;;;15.35;8.40;;;;;;;9.69;30.48;149731.03;5082319;28;20024;-69
2023/04/17 01:13:30;;;;;;;15.43;9.93;;;;;;;9.67;31.21;149725.88;5101542;28;20110;-68
2023/04/17 01:15:55;;;;;;;16.52;9.75;;;;;;;9.58;31.06;149702.81;5089947;28;20024;-69
2023/04/17 01:18:21;;;;;;;21.65;10.02;;;;;;;9.56;31.39;149697.69;5083752;28;20036;-69
2023/04/17 01:20:46;;;;;;;15.85;9.68;;;;;;;9.59;31.06;149705.34;5083932;28;20228;-69
2023/04/17 01:23:12;;;;;;;17.02;10.82;;;;;;;9.55;30.75;149695.09;5083277;28;20070;-68
2023/04/17 01:25:38;;;;;;;17.63;10.68;;;;;;;9.52;30.89;149687.41;5100451;28;20035;-71
2023/04/17 01:28:03;;;;;;;17.63;10.80;;;;;;;9.42;30.78;149664.38;5083146;28;20024;-68
2023/04/17 01:30:29;;;;;;;18.75;11.05;;;;;;;9.61;31.00;149711.78;5083230;28;20032;-69
2023/04/17 01:32:55;;;;;;;18.73;11.07;;;;;;;9.57;30.93;149700.25;5096152;28;20021;-71
2023/04/17 01:35:21;;;;;;;18.45;11.32;;;;;;;9.43;32.66;149666.91;5082846;28;20020;-68
2023/04/17 01:37:46;;;;;;;16.65;11.43;;;;;;;9.59;31.93;149705.34;5102744;28;20027;-70
2023/04/17 01:40:12;;;;;;;18.85;11.18;;;;;;;9.58;32.13;149704.09;5087987;28;20032;-70
2023/04/17 01:42:38;;;;;;;20.67;11.38;;;;;;;9.57;31.13;149700.25;5082936;28;20301;-68
2023/04/17 01:45:04;;;;;;;17.23;10.88;;;;;;;9.54;31.20;149692.56;5089091;28;20046;-67
2023/04/17 01:47:30;;;;;;;23.98;11.35;;;;;;;9.52;32.47;149687.41;5101017;28;20028;-68
2023/04/17 01:49:55;;;;;;;19.15;10.60;;;;;;;9.46;30.39;149673.31;5083109;28;20050;-68
2023/04/17 01:52:21;;;;;;;17.35;11.02;;;;;;;9.48;30.81;149679.75;5083073;28;20111;-66
2023/04/17 01:54:46;;;;;;;13.75;9.77;;;;;;;9.53;31.07;149691.25;5082667;28;20081;-66
2023/04/17 01:57:12;;;;;;;17.48;11.40;;;;;;;9.42;31.54;149664.38;5090074;28;20028;-66
2023/04/17 01:59:38;;;;;;;15.82;10.52;;;;;;;9.49;30.98;149682.31;5085400;28;20036;-67
2023/04/17 02:02:03;;;;;;;18.92;10.57;;;;;;;9.36;31.31;149647.72;5090163;28;20096;-68
2023/04/17 02:04:29;;;;;;;14.93;10.48;;;;;;;9.38;31.12;149654.13;5089488;28;20028;-68
2023/04/17 02:06:54;;;;;;;22.25;11.27;;;;;;;9.23;30.59;149616.94;5104551;28;20028;-69
2023/04/17 02:09:20;;;;;;;18.88;11.27;;;;;;;9.33;30.91;149642.59;5089463;28;20079;-68
2023/04/17 02:11:46;;;;;;;16.85;11.02;;;;;;;9.37;31.04;149650.28;5096607;28;20221;-69
2023/04/17 02:14:11;;;;;;;18.67;11.57;;;;;;;9.40;31.21;149659.22;5125744;27;20058;-66
2023/04/17 02:16:38;;;;;;;15.88;10.65;;;;;;;9.38;30.63;149652.81;5109653;27;20375;-67
2023/04/17 02:19:04;;;;;;;19.00;10.52;;;;;;;9.37;31.41;149651.53;5095389;28;20032;-66
2023/04/17 02:21:29;;;;;;;19.00;12.15;;;;;;;9.30;31.34;149634.88;5101493;28;20220;-67
2023/04/17 02:23:55;;;;;;;17.88;11.57;;;;;;;9.24;30.76;149618.25;5121035;28;20040;-66
2023/04/17 02:26:22;;;;;;;21.92;11.23;;;;;;;9.26;31.79;149623.34;5096554;28;20028;-65
2023/04/17 02:28:47;;;;;;;18.42;11.23;;;;;;;9.23;32.05;149615.69;5089269;28;20044;-67
2023/04/17 02:31:13;;;;;;;17.80;11.15;;;;;;;9.31;31.57;149636.19;5089412;28;20025;-68
2023/04/17 02:33:39;;;;;;;16.35;11.00;;;;;;;9.33;30.76;149641.28;5099598;28;20448;-68
2023/04/17 02:36:05;;;;;;;19.90;11.05;;;;;;;9.33;31.29;149641.28;5103946;28;20040;-68
2023/04/17 02:38:31;;;;;;;18.90;11.05;;;;;;;9.37;31.20;149651.53;5089031;28;20320;-67
2023/04/17 02:40:58;;;;;;;20.48;11.25;;;;;;;9.26;31.98;149623.34;5088800;28;20028;-68
2023/04/17 02:43:24;;;;;;;21.70;12.23;;;;;;;9.29;32.03;149631.03;5101234;28;20028;-68
2023/04/17 02:45:50;;;;;;;16.25;10.63;;;;;;;9.32;31.78;149640.03;5091404;28;20044;-67
2023/04/17 02:48:16;;;;;;;16.00;11.43;;;;;;;9.31;31.50;149636.19;5109493;28;20091;-68
2023/04/17 02:50:42;;;;;;;15.85;11.65;;;;;;;9.43;31.65;149666.91;5106843;28;20047;-68
2023/04/17 02:53:08;;;;;;;22.73;11.93;;;;;;;9.40;31.72;149659.22;5089374;28;20312;-67
2023/04/17 02:55:34;;;;;;;18.55;12.13;;;;;;;9.40;30.80;149659.22;5088924;28;20035;-67
2023/04/17 02:57:59;;;;;;;20.25;11.98;;;;;;;9.39;30.98;149656.69;5088968;28;20031;-67
2023/04/17 03:00:26;;;;;;;20.83;12.30;;;;;;;9.52;30.21;149687.41;5096265;28;20020;-66
2023/04/17 03:02:52;;;;;;;22.27;12.63;;;;;;;9.61;31.71;149710.50;5103822;28;20040;-67
2023/04/17 03:05:19;;;;;;;19.83;11.82;;;;;;;9.67;30.01;149725.88;5089172;28;20020;-67
2023/04/17 03:07:45;;;;;;;19.30;11.60;;;;;;;9.66;30.88;149723.28;5108061;28;20254;-68
2023/04/17 03:10:11;;;;;;;19.25;11.60;;;;;;;9.76;31.24;149747.66;5108490;28;20047;-68
2023/04/17 03:12:36;;;;;;;21.45;13.68;;;;;;;9.69;31.21;149731.03;5086960;28;20032;-67
2023/04/17 03:15:02;;;;;;;23.65;12.18;;;;;;;9.75;30.96;149746.38;5090803;28;20066;-67
2023/04/17 03:17:28;;;;;;;20.20;12.48;;;;;;;9.88;30.58;149778.44;5087829;28;20028;-67
2023/04/17 03:19:54;;;;;;;21.30;11.88;;;;;;;9.90;32.45;149782.28;5105962;28;20354;-67
2023/04/17 03:22:20;;;;;;;17.10;12.07;;;;;;;9.83;32.87;149765.59;5089833;28;20052;-67
2023/04/17 03:24:45;;;;;;;16.77;11.88;;;;;;;9.80;31.45;149759.16;5085415;28;20054;-67
2023/04/17 03:27:11;;;;;;;20.60;12.57;;;;;;;9.82;30.71;149764.31;5091620;28;20261;-67
2023/04/17 03:29:36;;;;;;;17.88;12.38;;;;;;;10.02;30.63;149814.31;5085039;28;20074;-68
2023/04/17 03:32:02;;;;;;;19.13;12.45;;;;;;;10.38;30.44;149902.81;5085455;28;20027;-67
2023/04/17 03:34:28;;;;;;;19.70;12.07;;;;;;;10.26;31.12;149872.00;5101060;28;20031;-67
2023/04/17 03:36:53;;;;;;;19.52;12.35;;;;;;;10.16;31.10;149848.94;5093588;28;20252;-67
2023/04/17 03:39:19;;;;;;;20.88;12.55;;;;;;;10.14;30.58;149843.78;5085424;28;20039;-68
2023/04/17 03:41:45;;;;;;;24.13;12.43;;;;;;;10.03;30.34;149815.56;5085109;28;20078;-67
2023/04/17 03:44:11;;;;;;;19.70;13.02;;;;;;;10.04;31.23;149816.88;5085595;28;20032;-68
2023/04/17 03:46:37;;;;;;;17.27;11.65;;;;;;;9.88;31.34;149777.16;5097835;28;20086;-68
2023/04/17 03:49:03;;;;;;;20.08;12.82;;;;;;;10.02;30.45;149813.03;5085112;28;20040;-68
2023/04/17 03:51:30;;;;;;;21.38;12.25;;;;;;;9.75;30.24;149746.38;5084708;28;20039;-67
2023/04/17 03:53:56;;;;;;;17.50;12.65;;;;;;;9.71;31.42;149736.13;5088455;28;20206;-67
2023/04/17 03:56:22;;;;;;;22.63;12.20;;;;;;;9.87;30.46;149774.59;5089448;28;20032;-67
2023/04/17 03:58:47;;;;;;;24.83;13.40;;;;;;;9.84;31.18;149769.44;5084519;28;20305;-67
2023/04/17 04:01:13;;;;;;;19.00;12.38;;;;;;;9.64;31.36;149719.44;5098948;28;20116;-67
2023/04/17 04:03:39;;;;;;;22.65;12.73;;;;;;;9.99;30.27;149805.31;5094984;28;20097;-67
2023/04/17 04:06:08;;;;;;;19.77;13.05;;;;;;;10.05;31.63;149819.41;5089885;28;20031;-67
2023/04/17 04:08:34;;;;;;;23.42;13.68;;;;;;;10.08;30.55;149828.41;5104230;28;20292;-67
2023/04/17 04:11:00;;;;;;;22.73;13.63;;;;;;;10.12;31.59;149837.41;5084396;28;20020;-67
2023/04/17 04:13:26;;;;;;;21.85;13.80;;;;;;;10.22;31.82;149861.72;5084479;28;20091;-67
2023/04/17 04:15:52;;;;;;;21.75;12.43;;;;;;;10.24;30.65;149868.16;5087941;28;20040;-66
2023/04/17 04:18:17;;;;;;;23.58;13.05;;;;;;;10.10;30.10;149833.53;5098347;28;20209;-66
2023/04/17 04:20:43;;;;;;;21.33;13.82;;;;;;;10.31;30.41;149884.81;5084380;28;20110;-67
2023/04/17 04:23:09;;;;;;;23.02;13.45;;;;;;;10.20;30.49;149857.88;5083205;28;20073;-67
2023/04/17 04:25:35;;;;;;;17.83;12.93;;;;;;;10.05;31.01;149820.72;5084721;28;20134;-66
2023/04/17 04:28:01;;;;;;;26.73;13.18;;;;;;;10.15;30.49;149846.34;5091670;28;20051;-67
2023/04/17 04:30:29;;;;;;;23.25;13.88;;;;;;;10.18;30.70;149852.78;5097484;28;20103;-67
2023/04/17 04:32:55;;;;;;;29.27;13.85;;;;;;;10.15;30.22;149845.09;5098107;28;20048;-68
2023/04/17 04:35:24;;;;;;;25.05;14.93;;;;;;;10.41;29.82;149909.25;5083730;28;20032;-67
2023/04/17 04:37:53;;;;;;;20.65;13.80;;;;;;;10.64;31.06;149968.22;5083216;28;20037;-67
2023/04/17 04:40:20;;;;;;;20.00;13.85;;;;;;;10.72;30.47;149987.47;5083965;28;20091;-66
2023/04/17 04:42:48;;;;;;;24.10;14.63;;;;;;;10.74;29.76;149992.59;5083584;28;20032;-69
2023/04/17 04:45:14;;;;;;;20.75;13.82;;;;;;;10.88;30.32;150028.50;5083604;28;20035;-68
2023/04/17 04:47:40;;;;;;;20.52;13.65;;;;;;;11.00;30.74;150056.72;5083008;28;20045;-67
2023/04/17 04:50:07;;;;;;;23.17;13.95;;;;;;;11.03;31.06;150064.41;5084017;28;20021;-66
2023/04/17 04:52:32;;;;;;;30.42;14.82;;;;;;;11.03;30.08;150064.41;5084178;28;20264;-65
2023/04/17 04:54:58;;;;;;;22.25;14.27;;;;;;;10.90;29.67;150032.34;5096024;28;20328;-68
2023/04/17 04:57:24;;;;;;;26.15;14.23;;;;;;;11.01;30.04;150060.56;5087179;28;20210;-67
2023/04/17 04:59:49;;;;;;;23.23;14.60;;;;;;;11.02;30.44;150061.88;5085109;28;20032;-67
2023/04/17 05:02:15;;;;;;;26.60;13.85;;;;;;;11.11;30.24;150084.94;5103295;28;20036;-68
2023/04/17 05:04:41;;;;;;;24.67;13.95;;;;;;;11.04;30.11;150068.28;5084208;28;20048;-67
2023/04/17 05:07:06;;;;;;;19.48;14.00;;;;;;;11.19;29.84;150105.47;5083320;28;20096;-66
2023/04/17 05:09:32;;;;;;;24.15;14.68;;;;;;;11.25;30.58;150119.59;5091211;28;20027;-67
2023/04/17 05:11:58;;;;;;;28.67;14.88;;;;;;;11.28;30.60;150127.28;5093963;28;20028;-67
2023/04/17 05:14:24;;;;;;;22.00;14.35;;;;;;;11.29;31.32;150129.88;5100391;28;20073;-67
2023/04/17 05:16:49;;;;;;;24.40;14.55;;;;;;;11.23;29.87;150115.75;5094194;28;20035;-68
2023/04/17 05:19:15;;;;;;;22.00;13.65;;;;;;;11.21;30.51;150110.59;5090213;28;20028;-67
2023/04/17 05:21:41;;;;;;;29.23;15.18;;;;;;;11.25;30.11;150119.59;5091768;28;20107;-68
2023/04/17 05:24:07;;;;;;;26.08;14.00;;;;;;;11.17;30.19;150100.38;5083001;28;20217;-67
2023/04/17 05:26:33;;;;;;;29.02;14.73;;;;;;;11.16;30.32;150097.78;5091863;28;20193;-67
2023/04/17 05:28:58;;;;;;;32.33;15.43;;;;;;;11.23;30.27;150115.75;5084809;28;20031;-67
2023/04/17 05:31:25;;;;;;;30.17;15.70;;;;;;;11.25;30.03;150118.31;5097457;28;20017;-66
2023/04/17 05:33:50;;;;;;;32.22;15.98;;;;;;;11.34;29.71;150141.41;5082099;28;20063;-65
2023/04/17 05:36:16;;;;;;;30.08;15.88;;;;;;;11.04;30.15;150068.28;5088435;28;20089;-67
2023/04/17 05:38:41;;;;;;;27.70;15.98;;;;;;;11.31;30.47;150133.72;5102452;28;20040;-66
2023/04/17 05:41:07;;;;;;;24.75;15.70;;;;;;;11.50;30.74;150182.50;5082766;28;20024;-66
2023/04/17 05:43:33;;;;;;;29.75;15.75;;;;;;;11.35;30.11;150143.97;5082647;28;20062;-67
2023/04/17 05:45:59;;;;;;;29.40;16.42;;;;;;;11.28;30.18;150126.03;5093937;28;20039;-66
2023/04/17 05:48:24;;;;;;;25.33;16.00;;;;;;;11.35;30.24;150143.97;5096671;28;20197;-69
2023/04/17 05:50:50;;;;;;;32.63;16.55;;;;;;;11.31;29.92;150134.97;5088075;28;20043;-68
2023/04/17 05:53:15;;;;;;;29.90;16.95;;;;;;;11.14;29.81;150092.63;5083185;28;20036;-69
2023/04/17 05:55:41;;;;;;;24.30;16.40;;;;;;;11.47;30.42;150174.78;5084146;28;20066;-68
2023/04/17 05:58:07;;;;;;;25.15;15.00;;;;;;;11.68;29.61;150226.13;5090685;28;20095;-65
2023/04/17 06:00:33;;;;;;;26.17;15.85;;;;;;;11.95;29.22;150294.19;5082634;28;20021;-68
2023/04/17 06:03:00;;;;;;;23.67;15.98;;;;;;;11.86;29.63;150272.31;5083004;28;20032;-68
2023/04/17 06:05:26;;;;;;;31.95;15.65;;;;;;;12.05;29.41;150318.59;5083908;28;20105;-69
2023/04/17 06:07:52;;;;;;;32.65;16.88;;;;;;;11.96;29.23;150296.78;5100913;28;20035;-67
2023/04/17 06:10:18;;;;;;;28.08;15.40;;;;;;;11.96;29.37;150295.50;5088810;28;20104;-69
2023/04/17 06:12:45;;;;;;;26.13;14.70;;;;;;;12.29;29.03;150378.94;5095030;28;20034;-69
2023/04/17 06:15:11;;;;;;;26.45;15.48;;;;;;;12.47;29.18;150423.91;5111192;28;20024;-69
2023/04/17 06:17:38;;;;;;;25.60;15.50;;;;;;;11.99;28.51;150304.47;5115340;28;20028;-68
2023/04/17 06:20:08;;;;;;;27.45;15.63;;;;;;;12.05;28.96;150319.84;5102772;28;20024;-68
2023/04/17 06:22:34;;;;;;;22.98;15.73;;;;;;;11.90;29.21;150282.59;5084972;28;20062;-68
2023/04/17 06:24:59;;;;;;;24.63;15.15;;;;;;;12.20;29.17;150355.81;5093976;28;20032;-67
2023/04/17 06:27:25;;;;;;;31.80;15.40;;;;;;;12.32;28.91;150385.38;5096044;28;20209;-67
2023/04/17 06:29:51;;;;;;;29.15;15.07;;;;;;;12.48;29.67;150426.44;5082563;28;20039;-68
2023/04/17 06:32:16;;;;;;;29.27;15.77;;;;;;;12.43;28.75;150413.63;5082574;28;20209;-68
2023/04/17 06:34:42;;;;;;;25.45;14.80;;;;;;;12.59;29.03;150453.44;5099133;28;20069;-68
2023/04/17 06:37:07;;;;;;;23.35;14.73;;;;;;;12.58;27.97;150452.16;5089679;28;20028;-68
2023/04/17 06:39:33;;;;;;;25.50;14.88;;;;;;;12.68;28.59;150476.53;5082126;28;20353;-68
2023/04/17 06:41:58;;;;;;;25.23;14.55;;;;;;;12.45;28.21;150418.72;5085689;28;20028;-68
2023/04/17 06:44:24;;;;;;;27.73;14.70;;;;;;;12.15;28.32;150344.25;5123016;28;20027;-69
2023/04/17 06:46:52;;;;;;;27.48;14.98;;;;;;;12.38;28.79;150402.03;5087363;28;20344;-69
2023/04/17 06:49:17;;;;;;;26.15;14.63;;;;;;;12.41;29.20;150408.47;5106564;28;20034;-67
2023/04/17 06:51:44;;;;;;;19.60;13.85;;;;;;;12.53;28.33;150439.28;5096544;28;20039;-68
2023/04/17 06:54:10;;;;;;;24.75;13.38;;;;;;;12.71;28.70;150482.94;5087955;28;20044;-70
2023/04/17 06:56:36;;;;;;;24.70;14.27;;;;;;;12.78;28.56;150502.25;5091136;28;20040;-66
2023/04/17 06:59:02;;;;;;;24.92;12.88;;;;;;;12.88;28.42;150526.66;5109165;28;20087;-68
2023/04/17 07:01:30;;;;;;;26.50;14.48;;;;;;;12.84;28.02;150516.38;5090881;28;20351;-67
2023/04/17 07:03:56;;;;;;;30.63;14.52;;;;;;;12.64;28.15;150466.28;5094507;28;20019;-69
2023/04/17 07:06:24;;;;;;;29.58;14.43;;;;;;;12.32;28.69;150385.38;5100609;28;20024;-69
2023/04/17 07:08:50;;;;;;;22.95;15.40;;;;;;;12.63;28.16;150462.38;5086813;28;20032;-68
2023/04/17 07:11:16;;;;;;;21.17;13.50;;;;;;;12.87;27.89;150524.06;5100108;28;20036;-67
2023/04/17 07:13:41;;;;;;;30.52;15.05;;;;;;;12.80;27.83;150504.78;5103266;28;20100;-67
2023/04/17 07:16:07;;;;;;;24.05;14.40;;;;;;;12.95;27.77;150544.66;5094005;28;20032;-68
2023/04/17 07:18:32;;;;;;;21.52;15.55;;;;;;;13.03;27.46;150562.63;5092554;28;20091;-68
2023/04/17 07:20:58;;;;;;;24.30;14.93;;;;;;;13.26;28.48;150620.44;5096496;28;20052;-69
2023/04/17 07:23:24;;;;;;;23.17;14.63;;;;;;;12.97;29.13;150547.19;5086723;28;20096;-69
2023/04/17 07:25:49;;;;;;;23.75;15.60;;;;;;;13.11;27.89;150584.47;5091716;28;20021;-68
2023/04/17 07:28:16;;;;;;;26.70;15.07;;;;;;;13.20;27.17;150606.31;5093011;28;20104;-68
2023/04/17 07:30:41;;;;;;;24.17;14.68;;;;;;;13.44;28.16;150665.50;5085530;28;20036;-68
2023/04/17 07:33:07;;;;;;;29.17;14.98;;;;;;;13.81;27.30;150758.03;5088717;28;20028;-69
2023/04/17 07:35:33;;;;;;;24.60;15.18;;;;;;;14.01;27.19;150806.84;5105647;28;20028;-70
2023/04/17 07:38:02;;;;;;;26.20;14.27;;;;;;;14.34;26.71;150890.47;5086758;28;20234;-69
2023/04/17 07:40:27;;;;;;;25.00;13.20;;;;;;;14.22;27.11;150860.84;5099726;28;20225;-69
2023/04/17 07:42:55;;;;;;;26.27;12.80;;;;;;;14.57;26.38;150947.06;5095719;28;20021;-69
2023/04/17 07:45:20;;;;;;;15.18;12.32;;;;;;;14.77;26.95;150998.53;5090552;28;20185;-68
2023/04/17 07:47:46;;;;;;;18.38;12.18;;;;;;;14.91;26.13;151033.28;5095507;28;20031;-68
2023/04/17 07:50:12;;;;;;;20.00;12.85;;;;;;;14.88;26.41;151024.25;5102746;28;20032;-67
2023/04/17 07:52:37;;;;;;;19.35;12.38;;;;;;;15.04;25.58;151065.47;5089291;28;20103;-70
2023/04/17 07:55:03;;;;;;;17.30;12.40;;;;;;;15.15;25.35;151092.50;5086396;28;20044;-68
2023/04/17 07:57:29;;;;;;;18.73;12.68;;;;;;;15.20;26.00;151105.34;5098939;28;20025;-68
2023/04/17 07:59:55;;;;;;;19.30;12.40;;;;;;;15.63;25.69;151213.44;5085003;28;20301;-68
2023/04/17 08:02:21;;;;;;;19.30;11.60;;;;;;;15.99;25.85;151302.31;5085123;28;20020;-68
2023/04/17 08:04:46;;;;;;;29.23;11.88;;;;;;;15.95;24.81;151292.06;5101886;28;20031;-69
2023/04/17 08:07:13;;;;;;;19.27;11.45;;;;;;;16.11;24.90;151331.97;5093294;28;20296;-69
2023/04/17 08:09:39;;;;;;;13.77;7.45;;;;;;;15.83;25.60;151263.72;5092198;28;20023;-69
2023/04/17 08:12:05;;;;;;;14.05;8.18;;;;;;;15.59;24.55;151203.19;5102046;28;20027;-70
2023/04/17 08:14:31;;;;;;;15.32;7.97;;;;;;;15.98;25.02;151301.06;5083599;28;20275;-68
2023/04/17 08:16:57;;;;;;;17.08;7.88;;;;;;;15.85;24.70;151268.88;5084717;28;20029;-69
2023/04/17 08:19:22;;;;;;;18.92;8.02;;;;;;;15.92;24.34;151284.31;5097880;28;20081;-67
2023/04/17 08:21:48;;;;;;;16.48;8.25;;;;;;;16.17;24.74;151347.41;5096318;28;20190;-69
2023/04/17 08:24:15;;;;;;;17.15;8.88;;;;;;;16.24;24.68;151364.16;5084721;28;20070;-70
2023/04/17 08:26:40;;;;;;;19.52;9.15;;;;;;;16.34;24.48;151391.19;5063738;28;20060;-69
2023/04/17 08:29:07;;;;;;;16.33;8.65;;;;;;;16.54;25.17;151441.41;5046697;28;20328;-69
2023/04/17 08:31:35;;;;;;;21.08;8.90;;;;;;;16.83;24.73;151513.59;5054947;28;20105;-68
2023/04/17 08:34:02;;;;;;;14.10;8.13;;;;;;;16.17;23.68;151347.41;5053916;28;20036;-68
2023/04/17 08:36:28;;;;;;;13.10;8.43;;;;;;;15.95;24.38;151292.06;5044294;28;20033;-68
2023/04/17 08:38:54;;;;;;;22.67;9.88;;;;;;;15.90;24.29;151280.44;5044555;28;20332;-70
2023/04/17 08:41:22;;;;;;;16.92;10.20;;;;;;;15.67;24.34;151222.47;5063924;28;20056;-69
2023/04/17 08:43:50;;;;;;;18.25;10.15;;;;;;;16.41;25.01;151407.94;5062887;28;20029;-69
2023/04/17 08:46:26;;;;;;;18.55;9.95;;;;;;;16.70;24.31;151480.06;5055904;28;20033;-69
2023/04/17 08:48:51;;;;;;;16.00;7.88;;;;;;;16.45;23.01;151418.25;5050359;28;20108;-70
2023/04/17 08:51:17;;;;;;;14.93;7.35;;;;;;;16.13;23.33;151337.09;5048076;28;20329;-68
2023/04/17 08:53:42;;;;;;;13.48;7.18;;;;;;;16.18;23.67;151350.00;5063458;28;20053;-69
2023/04/17 08:56:08;;;;;;;14.23;7.28;;;;;;;15.63;24.04;151212.16;5050448;28;20120;-69
2023/04/17 08:58:34;;;;;;;17.65;8.25;;;;;;;15.64;24.12;151216.03;5059127;28;20039;-68
2023/04/17 09:01:11;;;;;;;15.02;8.70;;;;;;;15.52;25.07;151185.16;5059062;28;20218;-69
2023/04/17 09:03:42;;;;;;;14.48;8.13;;;;;;;15.79;24.80;151253.44;5054249;28;20102;-71
2023/04/17 09:06:11;;;;;;;15.10;7.15;;;;;;;15.06;24.96;151070.59;5052437;28;20029;-70
2023/04/17 09:08:52;;;;;;;12.00;6.43;;;;;;;15.31;24.16;151133.66;5050496;28;20037;-69
2023/04/17 09:11:18;;;;;;;11.23;6.28;;;;;;;16.11;24.20;151331.97;5060704;28;20058;-68
2023/04/17 09:13:44;;;;;;;8.93;5.57;;;;;;;16.38;23.69;151401.50;5053107;28;20028;-69
2023/04/17 09:16:12;;;;;;;13.02;4.95;;;;;;;16.69;23.20;151478.78;5051668;28;20092;-68
2023/04/17 09:18:39;;;;;;;8.18;5.18;;;;;;;16.68;23.03;151476.19;5050917;28;20316;-68
2023/04/17 09:21:06;;;;;;;9.65;5.10;;;;;;;16.65;23.15;151468.47;5057962;28;20049;-69
2023/04/17 09:23:47;;;;;;;11.13;5.63;;;;;;;16.66;23.35;151471.06;5050796;28;20029;-68
2023/04/17 09:26:15;;;;;;;14.60;5.83;;;;;;;16.77;23.38;151498.09;5053546;28;20069;-69
2023/04/17 09:28:42;;;;;;;7.95;5.30;;;;;;;16.35;22.93;151393.78;5051664;28;20491;-69
2023/04/17 09:31:17;;;;;;;11.02;5.68;;;;;;;16.20;22.94;151356.44;5049342;28;20249;-67
2023/04/17 09:34:07;;;;;;;9.25;4.93;;;;;;;15.52;22.84;151186.44;5054017;28;20131;-70
2023/04/17 09:36:35;;;;;;;8.40;5.10;;;;;;;15.35;23.58;151143.97;5049481;28;20269;-69
2023/04/17 09:39:03;;;;;;;10.18;5.95;;;;;;;15.25;23.84;151118.22;5052073;28;20032;-70
2023/04/17 09:41:32;;;;;;;10.77;5.55;;;;;;;15.25;23.80;151116.91;5049821;28;20017;-68
2023/04/17 09:44:00;;;;;;;21.17;6.32;;;;;;;15.65;23.32;151218.59;5050470;28;20037;-70
2023/04/17 09:46:55;;;;;;;9.52;5.38;;;;;;;15.78;23.04;151249.53;5055726;28;20025;-70
2023/04/17 09:49:38;;;;;;;10.07;5.40;;;;;;;16.14;23.40;151339.69;5058006;28;20037;-69
2023/04/17 09:52:05;;;;;;;7.55;5.03;;;;;;;16.01;23.10;151308.78;5053657;28;20021;-69
2023/04/17 09:54:32;;;;;;;9.98;5.82;;;;;;;15.83;23.08;151262.41;5053099;28;20033;-72
2023/04/17 09:57:01;;;;;;;10.07;5.43;;;;;;;15.52;23.09;151186.44;5058531;28;20040;-70
2023/04/17 09:59:28;;;;;;;12.77;5.70;;;;;;;16.09;23.77;151326.78;5043270;28;20117;-69
2023/04/17 10:01:53;;;;;;;13.90;5.50;;;;;;;15.88;23.29;151275.31;5044679;28;20025;-69
2023/04/17 10:04:20;;;;;;;8.77;5.45;;;;;;;16.07;23.92;151321.66;5049303;28;20024;-70
2023/04/17 10:06:46;;;;;;;8.80;5.25;;;;;;;15.82;23.81;151261.16;5056794;28;20024;-69
2023/04/17 10:09:12;;;;;;;15.45;6.15;;;;;;;15.32;23.62;151136.25;5051866;28;20318;-67
2023/04/17 10:11:43;;;;;;;11.05;6.22;;;;;;;14.96;23.97;151046.19;5054136;28;20040;-69
2023/04/17 10:14:25;;;;;;;7.45;5.80;;;;;;;15.10;23.35;151079.63;5049608;28;20035;-68
2023/04/17 10:16:52;;;;;;;9.30;6.00;;;;;;;15.70;23.05;151231.50;5049306;28;20037;-67
2023/04/17 10:19:32;;;;;;;7.80;5.40;;;;;;;15.79;22.86;151253.44;5051091;28;20080;-67
2023/04/17 10:22:18;;;;;;;9.27;5.57;;;;;;;15.21;23.72;151107.94;5051631;28;20025;-69
2023/04/17 10:24:46;;;;;;;7.30;5.10;;;;;;;15.54;23.67;151190.28;5046218;28;20033;-69
2023/04/17 10:27:23;;;;;;;10.40;5.97;;;;;;;15.46;23.92;151169.69;5057281;28;20251;-70
2023/04/17 10:29:53;;;;;;;14.32;5.55;;;;;;;15.71;25.08;151232.78;5060806;28;20041;-68
2023/04/17 10:32:19;;;;;;;11.90;5.82;;;;;;;15.47;24.34;151172.28;5063740;28;20221;-68
2023/04/17 10:34:45;;;;;;;7.70;5.10;;;;;;;15.41;24.76;151156.84;5057640;28;20048;-70
2023/04/17 10:37:14;;;;;;;8.30;5.55;;;;;;;15.90;24.22;151280.44;5062602;28;20082;-69
2023/04/17 10:39:55;;;;;;;10.57;4.90;;;;;;;15.82;24.25;151261.16;5058273;28;20060;-68
2023/04/17 10:42:22;;;;;;;10.82;6.63;;;;;;;15.81;24.81;151257.28;5057356;28;20037;-68
2023/04/17 10:44:49;;;;;;;10.45;5.45;;;;;;;15.87;24.19;151272.72;5051406;28;20026;-68
2023/04/17 10:47:19;;;;;;;13.32;5.78;;;;;;;15.93;24.39;151288.16;5059057;28;20105;-69
2023/04/17 10:49:54;;;;;;;8.35;5.50;;;;;;;15.88;24.72;151275.31;5052781;28;20021;-71
2023/04/17 10:52:32;;;;;;;9.23;5.75;;;;;;;15.95;25.21;151292.06;5060330;28;20049;-70
2023/04/17 10:55:20;;;;;;;13.05;5.80;;;;;;;15.49;23.98;151177.41;5057292;28;20122;-70
2023/04/17 10:57:58;;;;;;;8.13;5.65;;;;;;;15.41;24.42;151158.13;5060995;28;20357;-70
2023/04/17 11:00:32;;;;;;;14.10;6.63;;;;;;;15.27;25.12;151123.34;5050857;28;20036;-70
2023/04/17 11:02:59;;;;;;;8.70;5.72;;;;;;;15.47;24.77;151172.28;5066116;28;20033;-69
2023/04/17 11:05:24;;;;;;;10.75;5.78;;;;;;;15.36;24.96;151146.53;5044786;28;20040;-70
2023/04/17 11:07:50;;;;;;;10.00;5.85;;;;;;;15.53;25.06;151187.69;5061541;28;20064;-69
2023/04/17 11:10:20;;;;;;;16.77;7.45;;;;;;;15.90;25.13;151279.16;5055026;28;20047;-69
2023/04/17 11:12:55;;;;;;;16.90;6.60;;;;;;;15.64;25.10;151216.03;5052179;28;20182;-68
2023/04/17 11:15:27;;;;;;;9.02;5.43;;;;;;;15.92;25.50;151285.63;5062745;28;20095;-69